Time;durP1;ratioP1;P1;durP2;ratioP2;P2;SDS_P1;SDS_P2;PMS_P1;PMS_P2;Temp;Humidity;BMP_temperature;BMP_pressure;BME280_temperature;BME280_humidity;BME280_pressure;Samples;Min_cycle;Max_cycle;Signal;HPM_P1;HPM_P2
2023/06/29 00:03:35;;;;;;;16.27;12.10;;;;;;;19.25;64.25;100504.31;10195239;29;20044;-77
2023/06/29 00:08:38;;;;;;;20.63;12.73;;;;;;;19.21;64.27;100506.56;10197278;29;20048;-77
2023/06/29 00:13:43;;;;;;;16.80;13.60;;;;;;;19.15;64.74;100488.22;10196288;29;20047;-77
2023/06/29 00:18:45;;;;;;;18.08;11.60;;;;;;;19.20;64.82;100504.03;10197353;29;20419;-77
2023/06/29 00:23:48;;;;;;;22.10;13.23;;;;;;;19.16;64.96;100489.06;10197159;29;20044;-77
2023/06/29 00:28:52;;;;;;;18.05;12.80;;;;;;;19.13;64.76;100489.44;10200541;29;20064;-77
2023/06/29 00:33:56;;;;;;;18.80;12.95;;;;;;;19.12;65.02;100487.75;10193460;29;20042;-77
2023/06/29 00:39:00;;;;;;;21.30;14.07;;;;;;;19.14;64.89;100488.38;10198608;29;20139;-77
2023/06/29 00:44:04;;;;;;;20.02;12.77;;;;;;;19.10;64.81;100479.72;10200425;29;20095;-77
2023/06/29 00:49:07;;;;;;;24.38;14.02;;;;;;;19.14;64.63;100481.09;10204179;29;20082;-77
2023/06/29 00:54:10;;;;;;;21.75;16.70;;;;;;;19.14;64.73;100472.06;10201591;29;20035;-76
2023/06/29 00:59:15;;;;;;;23.98;14.95;;;;;;;19.06;64.73;100464.81;10191476;29;20143;-77
2023/06/29 01:04:22;;;;;;;21.05;14.48;;;;;;;19.04;64.74;100463.28;10188543;29;20039;-77
2023/06/29 01:09:26;;;;;;;24.13;14.18;;;;;;;18.95;65.29;100467.88;10194984;29;20080;-77
2023/06/29 01:14:32;;;;;;;20.83;14.40;;;;;;;18.92;65.29;100465.53;10193526;29;20381;-76
2023/06/29 01:19:35;;;;;;;18.73;14.60;;;;;;;18.92;65.09;100462.81;10196648;29;20035;-77
2023/06/29 01:24:40;;;;;;;22.00;13.88;;;;;;;18.80;65.43;100449.59;10200087;29;20039;-77
2023/06/29 01:29:43;;;;;;;23.40;14.45;;;;;;;18.81;65.44;100455.88;10189560;29;20131;-77
2023/06/29 01:34:46;;;;;;;25.77;15.23;;;;;;;18.74;65.60;100455.72;10197656;29;20048;-76
2023/06/29 01:39:54;;;;;;;19.08;13.95;;;;;;;18.66;65.66;100449.47;10213803;28;20131;-77
2023/06/29 01:44:58;;;;;;;25.00;15.93;;;;;;;18.58;66.04;100462.06;10215784;29;20051;-76
2023/06/29 01:50:02;;;;;;;25.20;15.20;;;;;;;18.52;66.30;100457.31;10211671;29;20048;-77
2023/06/29 01:55:09;;;;;;;19.17;15.10;;;;;;;18.47;66.74;100451.56;10213758;29;20051;-77
2023/06/29 02:00:14;;;;;;;22.45;14.27;;;;;;;18.42;66.77;100455.81;10208784;29;20055;-77
2023/06/29 02:05:19;;;;;;;18.73;15.25;;;;;;;18.38;66.95;100444.44;10210686;29;20078;-77
2023/06/29 02:10:23;;;;;;;23.88;15.18;;;;;;;18.32;67.18;100440.56;10201138;29;20048;-77
2023/06/29 02:15:26;;;;;;;22.63;14.63;;;;;;;18.30;67.44;100439.88;10194320;29;20060;-77
2023/06/29 02:20:29;;;;;;;21.60;14.98;;;;;;;18.26;67.79;100434.94;10203956;29;20051;-77
2023/06/29 02:25:33;;;;;;;20.65;14.65;;;;;;;18.23;68.24;100438.00;10203391;29;20105;-77
2023/06/29 02:30:36;;;;;;;20.60;15.45;;;;;;;18.17;68.68;100441.44;10222094;29;20048;-77
2023/06/29 02:35:39;;;;;;;19.58;14.73;;;;;;;18.19;68.95;100433.97;10209227;29;20054;-77
2023/06/29 02:40:44;;;;;;;22.80;14.75;;;;;;;18.13;69.04;100433.63;10205473;29;20075;-77
2023/06/29 02:45:47;;;;;;;20.70;15.50;;;;;;;18.12;69.19;100431.91;10214064;28;20080;-77
2023/06/29 02:50:50;;;;;;;21.17;14.68;;;;;;;18.16;69.17;100423.44;10195603;29;20490;-77
2023/06/29 02:55:54;;;;;;;18.35;14.00;;;;;;;18.12;69.54;100428.34;10208391;29;20106;-77
2023/06/29 03:00:57;;;;;;;23.33;14.20;;;;;;;18.12;69.55;100428.34;10207929;29;20071;-76
2023/06/29 03:06:02;;;;;;;19.40;15.43;;;;;;;18.17;69.68;100417.81;10203361;29;20058;-76
2023/06/29 03:11:06;;;;;;;21.77;15.18;;;;;;;18.09;69.94;100417.81;10207923;29;20472;-77
2023/06/29 03:16:09;;;;;;;20.80;14.70;;;;;;;18.07;69.99;100425.28;10204186;29;20597;-77
2023/06/29 03:21:13;;;;;;;20.25;14.43;;;;;;;18.08;70.04;100416.13;10219931;29;20400;-78
2023/06/29 03:26:21;;;;;;;22.95;14.07;;;;;;;18.09;69.93;100417.81;10200518;29;20099;-77
2023/06/29 03:31:24;;;;;;;22.08;14.25;;;;;;;18.01;70.18;100409.69;10201279;29;20071;-77
2023/06/29 03:36:28;;;;;;;23.83;14.70;;;;;;;18.07;70.06;100407.13;10202425;29;20054;-77
2023/06/29 03:41:32;;;;;;;21.80;15.20;;;;;;;18.16;69.77;100409.84;10204206;29;20103;-76
2023/06/29 03:46:35;;;;;;;20.00;14.68;;;;;;;18.17;69.57;100409.66;10218614;29;20051;-77
2023/06/29 03:51:38;;;;;;;16.95;13.18;;;;;;;18.18;69.53;100411.34;10221732;29;20052;-77
2023/06/29 03:56:42;;;;;;;19.98;13.70;;;;;;;18.18;69.28;100414.06;10219279;29;20822;-77
2023/06/29 04:01:45;;;;;;;21.15;14.70;;;;;;;18.24;69.30;100407.06;10197896;29;20067;-77
2023/06/29 04:06:48;;;;;;;21.45;14.23;;;;;;;18.26;69.10;100416.75;10196395;29;20039;-77
2023/06/29 04:11:52;;;;;;;17.20;13.27;;;;;;;18.27;69.31;100399.44;10198008;29;20074;-77
2023/06/29 04:16:55;;;;;;;20.48;14.68;;;;;;;18.29;69.13;100396.53;10202165;29;20040;-77
2023/06/29 04:21:58;;;;;;;21.05;14.65;;;;;;;18.28;69.49;100397.56;10204513;29;20032;-77
2023/06/29 04:27:03;;;;;;;24.55;13.73;;;;;;;18.39;69.40;100391.75;10212934;29;20047;-78
2023/06/29 04:32:06;;;;;;;23.33;14.80;;;;;;;18.38;69.75;100386.50;10219211;29;20048;-77
2023/06/29 04:37:10;;;;;;;19.98;14.35;;;;;;;18.38;69.91;100389.22;10203217;29;20038;-77
2023/06/29 04:42:16;;;;;;;22.10;15.50;;;;;;;18.36;69.90;100379.34;10203205;29;20664;-77
2023/06/29 04:47:19;;;;;;;18.63;14.20;;;;;;;18.42;69.94;100369.63;10200575;29;20055;-77
2023/06/29 04:52:22;;;;;;;21.88;14.77;;;;;;;18.42;69.42;100383.22;10199726;29;20491;-77
2023/06/29 04:57:27;;;;;;;22.15;13.52;;;;;;;18.43;69.40;100375.91;10192515;29;20051;-77
2023/06/29 05:02:31;;;;;;;20.58;14.10;;;;;;;18.51;69.14;100374.03;10193024;29;20051;-76
2023/06/29 05:07:35;;;;;;;24.13;13.85;;;;;;;18.51;68.87;100374.03;10187352;29;20134;-76
2023/06/29 05:12:39;;;;;;;22.15;14.43;;;;;;;18.48;68.91;100368.09;10185245;29;20040;-76
2023/06/29 05:17:43;;;;;;;19.15;14.38;;;;;;;18.49;68.79;100369.78;10189772;29;20067;-76
2023/06/29 05:22:46;;;;;;;19.98;13.88;;;;;;;18.53;68.94;100363.81;10189457;29;20035;-77
2023/06/29 05:27:50;;;;;;;17.65;13.90;;;;;;;18.73;68.50;100355.19;10191914;29;20058;-77
2023/06/29 05:32:53;;;;;;;19.80;13.88;;;;;;;18.84;68.01;100359.44;10192416;29;20047;-77
2023/06/29 05:37:56;;;;;;;19.98;14.48;;;;;;;18.85;67.95;100355.69;10186950;29;20043;-76
2023/06/29 05:43:00;;;;;;;18.92;13.98;;;;;;;18.82;67.96;100358.78;10177025;29;20043;-77
2023/06/29 05:48:04;;;;;;;18.77;13.50;;;;;;;18.88;68.02;100356.19;10196139;29;20091;-77
2023/06/29 05:53:07;;;;;;;30.48;14.95;;;;;;;19.00;67.83;100354.72;10205136;29;20055;-77
2023/06/29 05:58:11;;;;;;;19.13;14.48;;;;;;;19.18;67.79;100349.00;10198540;29;20045;-77
2023/06/29 06:03:15;;;;;;;22.90;15.13;;;;;;;19.39;66.91;100344.75;10194947;29;20040;-77
2023/06/29 06:08:18;;;;;;;18.92;14.90;;;;;;;19.43;66.33;100352.38;10181377;29;20043;-77
2023/06/29 06:13:22;;;;;;;16.52;13.57;;;;;;;19.39;66.06;100350.19;10191817;29;20040;-77
2023/06/29 06:18:25;;;;;;;22.17;13.88;;;;;;;19.48;66.10;100359.16;10184090;29;20052;-77
2023/06/29 06:23:28;;;;;;;21.05;14.85;;;;;;;19.62;65.69;100351.03;10192151;29;20586;-77
2023/06/29 06:28:36;;;;;;;17.20;12.68;;;;;;;19.84;65.30;100346.56;10206333;29;20056;-77
2023/06/29 06:33:39;;;;;;;17.80;12.85;;;;;;;19.75;64.89;100344.97;10216133;28;20412;-77
2023/06/29 06:38:42;;;;;;;17.02;11.77;;;;;;;19.99;64.78;100340.28;10201978;29;20383;-77
2023/06/29 06:43:53;;;;;;;14.20;9.93;;;;;;;20.20;63.86;100345.00;10202330;29;20044;-77
2023/06/29 06:48:56;;;;;;;16.02;10.15;;;;;;;20.26;63.27;100336.91;10197072;29;20044;-77
2023/06/29 06:53:59;;;;;;;14.68;10.68;;;;;;;20.31;63.72;100341.81;10187416;29;20052;-76
2023/06/29 06:59:03;;;;;;;15.75;10.25;;;;;;;20.43;63.08;100345.78;10197614;29;20047;-77
2023/06/29 07:04:06;;;;;;;14.32;9.10;;;;;;;20.71;62.54;100336.88;10198538;29;20059;-77
2023/06/29 07:09:09;;;;;;;15.63;9.18;;;;;;;21.06;61.93;100337.06;10205368;29;20048;-77
2023/06/29 07:14:17;;;;;;;12.63;8.40;;;;;;;21.31;60.59;100341.13;10207186;29;20118;-76
2023/06/29 07:19:22;;;;;;;10.95;7.80;;;;;;;21.28;59.98;100337.91;10208207;29;20103;-77
2023/06/29 07:24:28;;;;;;;14.30;7.70;;;;;;;21.34;60.04;100332.53;10197213;29;20044;-77
2023/06/29 07:29:33;;;;;;;12.32;7.57;;;;;;;21.37;60.63;100334.88;10196078;29;20056;-78
2023/06/29 07:34:36;;;;;;;9.48;7.10;;;;;;;21.34;59.18;100335.25;10206650;29;20519;-77
2023/06/29 07:39:39;;;;;;;13.15;7.15;;;;;;;21.20;58.96;100334.28;10204417;29;20476;-77
2023/06/29 07:44:43;;;;;;;12.18;7.40;;;;;;;21.35;59.51;100319.72;10212005;29;20067;-78
2023/06/29 07:49:46;;;;;;;17.48;7.35;;;;;;;21.59;59.09;100327.47;10214953;29;20115;-77
2023/06/29 07:54:49;;;;;;;12.65;7.07;;;;;;;21.99;58.16;100322.31;10211111;29;20044;-78
2023/06/29 07:59:53;;;;;;;10.95;7.50;;;;;;;22.64;56.04;100305.59;10206654;29;20058;-77
2023/06/29 08:04:56;;;;;;;10.35;6.55;;;;;;;23.21;55.31;100309.75;10200804;29;20032;-78
2023/06/29 08:10:02;;;;;;;12.68;7.78;;;;;;;23.43;54.70;100310.41;10200439;29;20055;-78
2023/06/29 08:15:07;;;;;;;8.85;6.40;;;;;;;23.84;54.66;100317.56;10222433;29;20099;-77
2023/06/29 08:20:12;;;;;;;9.30;6.22;;;;;;;24.28;53.01;100310.50;10221777;29;20054;-77
2023/06/29 08:25:15;;;;;;;13.07;7.38;;;;;;;23.87;49.90;100311.66;10221963;29;20054;-78
2023/06/29 08:30:20;;;;;;;9.75;6.88;;;;;;;23.37;51.59;100303.03;10201067;29;20111;-78
2023/06/29 08:35:22;;;;;;;11.23;6.65;;;;;;;22.96;52.96;100313.06;10195453;29;20048;-78
2023/06/29 08:40:27;;;;;;;11.02;7.13;;;;;;;22.32;53.92;100311.56;10195488;29;20050;-78
2023/06/29 08:45:31;;;;;;;13.77;7.72;;;;;;;22.02;54.94;100305.53;10200145;29;20047;-78
2023/06/29 08:50:36;;;;;;;12.68;8.57;;;;;;;21.77;56.16;100313.31;10203302;29;20040;-77
2023/06/29 08:55:42;;;;;;;11.18;6.82;;;;;;;21.78;57.43;100308.72;10201566;29;20420;-77
2023/06/29 09:00:46;;;;;;;10.27;8.43;;;;;;;21.77;56.45;100310.59;10201691;29;20139;-77
2023/06/29 09:05:49;;;;;;;12.23;7.97;;;;;;;21.84;56.05;100308.75;10195754;29;20075;-77
2023/06/29 09:10:55;;;;;;;12.80;8.38;;;;;;;21.92;56.02;100310.50;10183850;29;20455;-77
2023/06/29 09:16:00;;;;;;;12.30;8.35;;;;;;;21.97;54.92;100302.53;10204739;29;20575;-78
2023/06/29 09:21:05;;;;;;;12.52;8.05;;;;;;;22.17;55.55;100307.28;10190590;29;20412;-76
2023/06/29 09:26:08;;;;;;;13.75;8.68;;;;;;;22.25;55.39;100297.00;10198224;29;20457;-77
2023/06/29 09:31:13;;;;;;;13.10;8.48;;;;;;;22.07;55.40;100292.06;10203309;29;20036;-76
2023/06/29 09:36:16;;;;;;;18.35;9.05;;;;;;;21.95;55.33;100298.31;10202195;29;20040;-76
2023/06/29 09:41:19;;;;;;;14.27;8.88;;;;;;;22.44;54.67;100294.59;10202761;29;20052;-77
2023/06/29 09:46:26;;;;;;;13.93;8.27;;;;;;;22.52;53.90;100305.38;10188550;29;20048;-77
2023/06/29 09:51:31;;;;;;;12.15;7.72;;;;;;;22.43;53.50;100296.47;10213417;29;20039;-77
2023/06/29 09:56:35;;;;;;;18.90;7.90;;;;;;;22.43;53.91;100290.13;10217405;29;20047;-76
2023/06/29 10:01:40;;;;;;;13.00;8.23;;;;;;;22.34;53.45;100293.03;10207523;29;20048;-77
2023/06/29 10:06:44;;;;;;;13.50;7.63;;;;;;;22.62;53.15;100285.81;10207027;29;20048;-76
2023/06/29 10:11:51;;;;;;;13.93;7.35;;;;;;;22.94;52.45;100281.47;10206850;29;20079;-76
2023/06/29 10:16:56;;;;;;;10.23;7.20;;;;;;;23.33;51.78;100275.19;10209466;29;20147;-76
2023/06/29 10:22:03;;;;;;;10.18;6.97;;;;;;;24.09;50.16;100274.66;10191992;29;20170;-77
2023/06/29 10:27:08;;;;;;;11.38;7.05;;;;;;;24.52;49.67;100265.88;10198343;29;20164;-77
2023/06/29 10:32:30;;;;;;;10.43;6.38;;;;;;;24.79;48.30;100275.84;10200365;29;20119;-76
2023/06/29 10:37:34;;;;;;;10.60;6.72;;;;;;;25.01;48.91;100274.41;10202705;29;20123;-77
2023/06/29 10:42:54;;;;;;;14.48;6.78;;;;;;;24.87;48.68;100272.84;10202265;29;20039;-77
2023/06/29 10:48:04;;;;;;;11.52;6.78;;;;;;;24.73;48.05;100264.69;10203058;29;20510;-77
2023/06/29 10:53:11;;;;;;;12.60;7.93;;;;;;;24.92;48.02;100256.53;10206122;29;20045;-78
2023/06/29 10:58:22;;;;;;;16.17;8.48;;;;;;;24.70;49.04;100245.06;10198881;29;20043;-78
2023/06/29 11:03:27;;;;;;;14.30;8.63;;;;;;;24.77;48.91;100245.88;10194127;29;20046;-77
2023/06/29 11:08:32;;;;;;;13.35;8.88;;;;;;;24.60;49.64;100244.69;10200210;29;20052;-77
2023/06/29 11:13:35;;;;;;;17.52;9.45;;;;;;;24.98;48.77;100236.41;10212627;29;20043;-77
2023/06/29 11:18:48;;;;;;;12.85;9.45;;;;;;;25.27;48.11;100240.44;10205989;29;20039;-78
2023/06/29 11:23:53;;;;;;;13.25;8.73;;;;;;;25.22;48.37;100237.50;10196314;29;20047;-78
2023/06/29 11:28:56;;;;;;;16.77;9.30;;;;;;;25.34;48.23;100238.47;10211440;29;20043;-77
2023/06/29 11:34:01;;;;;;;18.23;10.20;;;;;;;26.09;45.93;100223.72;10207620;29;20511;-76
2023/06/29 11:39:09;;;;;;;16.83;9.88;;;;;;;27.57;45.13;100213.03;10202396;29;20045;-79
2023/06/29 11:44:12;;;;;;;15.05;9.68;;;;;;;27.93;42.41;100217.41;10188820;29;20076;-77
2023/06/29 11:49:19;;;;;;;17.95;9.88;;;;;;;26.28;46.53;100210.81;10189227;29;20047;-77
2023/06/29 11:54:25;;;;;;;14.13;9.70;;;;;;;25.41;48.39;100208.16;10202923;29;20038;-79
2023/06/29 11:59:28;;;;;;;16.05;10.85;;;;;;;24.20;50.80;100200.97;10227627;29;20059;-78
2023/06/29 12:04:32;;;;;;;15.20;10.73;;;;;;;23.25;54.55;100198.69;10203745;29;20054;-78
2023/06/29 12:09:38;;;;;;;17.50;11.27;;;;;;;23.46;53.45;100202.25;10203174;29;20050;-77
2023/06/29 12:14:41;;;;;;;20.33;11.57;;;;;;;23.17;54.05;100201.63;10178351;29;20103;-79
2023/06/29 12:19:45;;;;;;;16.35;10.68;;;;;;;22.97;54.92;100202.44;10203475;29;20496;-77
2023/06/29 12:25:11;;;;;;;17.17;10.68;;;;;;;23.05;55.77;100190.44;10202528;29;20496;-77
2023/06/29 12:30:16;;;;;;;19.13;11.27;;;;;;;23.07;55.11;100190.25;10198403;29;20044;-78
2023/06/29 12:35:21;;;;;;;11.93;9.30;;;;;;;23.11;58.39;100195.09;10197937;29;20063;-81
2023/06/29 12:40:24;;;;;;;17.65;11.02;;;;;;;23.05;57.28;100195.94;10212268;29;20042;-78
2023/06/29 12:45:27;;;;;;;14.10;9.38;;;;;;;22.92;58.95;100196.75;10215004;29;20044;-80
2023/06/29 12:50:31;;;;;;;13.57;10.40;;;;;;;22.86;60.00;100191.28;10199850;29;20154;-80
2023/06/29 12:55:34;;;;;;;18.50;9.18;;;;;;;22.47;56.94;100191.03;10198089;29;20048;-80
2023/06/29 13:00:37;;;;;;;12.27;8.43;;;;;;;22.18;56.32;100183.97;10206799;29;20051;-78
2023/06/29 13:05:42;;;;;;;14.05;8.77;;;;;;;22.29;55.96;100188.00;10206175;29;20043;-80
2023/06/29 13:10:46;;;;;;;10.82;6.88;;;;;;;22.34;54.90;100185.50;10189796;29;20048;-79
2023/06/29 13:15:48;;;;;;;14.38;7.40;;;;;;;22.44;54.58;100193.34;10210416;29;20405;-79
2023/06/29 13:20:53;;;;;;;13.68;8.88;;;;;;;22.18;54.95;100185.84;10210282;29;20162;-79
2023/06/29 13:25:56;;;;;;;12.60;8.43;;;;;;;22.10;55.90;100189.63;10213893;29;20043;-79
2023/06/29 13:30:59;;;;;;;14.88;8.75;;;;;;;21.40;62.77;100199.75;10211438;29;20062;-78
2023/06/29 13:36:04;;;;;;;16.95;11.20;;;;;;;21.54;65.46;100190.59;10202456;29;20044;-81
2023/06/29 13:41:07;;;;;;;14.60;11.02;;;;;;;21.02;65.97;100187.25;10205832;29;20052;-81
2023/06/29 13:46:10;;;;;;;14.77;10.70;;;;;;;21.09;66.27;100186.47;10209081;29;20044;-79
2023/06/29 13:51:15;;;;;;;15.60;9.63;;;;;;;21.47;70.21;100183.38;10209308;29;20048;-79
2023/06/29 13:56:18;;;;;;;16.10;9.63;;;;;;;21.09;68.31;100191.94;10216077;29;20054;-78
2023/06/29 14:01:21;;;;;;;18.35;10.00;;;;;;;20.64;69.25;100177.69;10209974;29;20099;-81
2023/06/29 14:06:26;;;;;;;15.63;10.63;;;;;;;20.91;70.71;100168.69;10198123;29;20100;-78
2023/06/29 14:11:28;;;;;;;17.92;10.73;;;;;;;20.89;70.99;100172.66;10217054;29;20082;-78
2023/06/29 14:16:32;;;;;;;18.17;11.98;;;;;;;20.85;70.93;100174.94;10207580;29;20497;-80
2023/06/29 14:21:36;;;;;;;20.55;12.48;;;;;;;20.19;71.52;100182.44;10212903;29;20075;-79
2023/06/29 14:26:39;;;;;;;20.00;13.30;;;;;;;20.02;75.93;100179.06;10200855;29;20471;-79
2023/06/29 14:31:42;;;;;;;21.02;14.07;;;;;;;20.32;80.06;100163.50;10213763;29;20487;-79
2023/06/29 14:36:46;;;;;;;20.15;13.43;;;;;;;20.63;81.14;100165.09;10184664;29;20044;-78
2023/06/29 14:41:53;;;;;;;27.58;14.25;;;;;;;21.00;82.47;100158.44;10213674;29;20075;-79
2023/06/29 14:46:56;;;;;;;25.02;13.45;;;;;;;21.33;82.28;100160.59;10203014;29;20040;-79
2023/06/29 14:52:00;;;;;;;20.13;13.35;;;;;;;21.50;78.15;100150.19;10213696;29;20054;-79
2023/06/29 14:57:03;;;;;;;24.58;13.82;;;;;;;21.64;80.30;100139.16;10200445;29;20510;-78
2023/06/29 15:02:07;;;;;;;18.55;12.90;;;;;;;21.77;79.29;100132.91;10204305;29;20549;-78
2023/06/29 15:07:11;;;;;;;23.52;14.45;;;;;;;21.77;78.14;100127.44;10213995;29;20696;-77
2023/06/29 15:12:14;;;;;;;19.48;13.15;;;;;;;21.79;77.99;100136.28;10216083;29;20415;-81
2023/06/29 15:17:17;;;;;;;20.80;13.70;;;;;;;21.94;76.50;100127.94;10210394;29;20040;-82
2023/06/29 15:22:23;;;;;;;22.52;13.88;;;;;;;22.07;74.16;100127.13;10200000;29;20055;-78
2023/06/29 15:27:26;;;;;;;20.02;12.77;;;;;;;21.96;72.74;100128.56;10201404;29;20086;-78
2023/06/29 15:32:29;;;;;;;20.58;12.93;;;;;;;21.93;71.00;100123.50;10177477;29;20453;-77
2023/06/29 15:37:34;;;;;;;20.33;13.95;;;;;;;21.81;69.89;100122.44;10192468;29;20131;-80
2023/06/29 15:42:37;;;;;;;22.58;14.90;;;;;;;21.72;70.01;100119.00;10185643;29;20052;-80
2023/06/29 15:47:40;;;;;;;25.73;15.23;;;;;;;21.62;70.72;100113.06;10205456;29;20652;-79
2023/06/29 15:52:45;;;;;;;19.73;13.60;;;;;;;21.52;70.33;100110.69;10204920;29;20051;-78
2023/06/29 15:57:48;;;;;;;18.88;14.18;;;;;;;21.39;70.41;100110.63;10203213;29;20043;-78
2023/06/29 16:02:51;;;;;;;19.63;13.30;;;;;;;21.31;70.27;100100.72;10197806;29;20076;-84
2023/06/29 16:07:56;;;;;;;23.17;13.80;;;;;;;21.32;70.42;100086.00;10223504;29;20093;-79
2023/06/29 16:12:59;;;;;;;21.35;12.95;;;;;;;21.32;70.10;100083.28;10217566;29;20415;-81
2023/06/29 16:18:02;;;;;;;22.42;13.38;;;;;;;21.30;69.87;100081.78;10214064;29;20059;-79
2023/06/29 16:23:07;;;;;;;17.23;12.15;;;;;;;21.29;69.87;100082.84;10201896;29;20451;-80
2023/06/29 16:28:10;;;;;;;21.35;13.57;;;;;;;21.20;70.20;100069.38;10198778;29;20035;-79
2023/06/29 16:33:12;;;;;;;19.48;12.68;;;;;;;21.25;70.12;100068.72;10210492;29;20083;-79
2023/06/29 16:38:17;;;;;;;15.50;11.23;;;;;;;21.32;67.91;100079.72;10208222;29;20040;-81
2023/06/29 16:43:20;;;;;;;17.02;11.73;;;;;;;21.48;67.64;100062.97;10203847;29;20035;-79
2023/06/29 16:48:23;;;;;;;16.30;10.32;;;;;;;21.86;67.83;100063.34;10203320;29;20075;-80
2023/06/29 16:53:27;;;;;;;16.25;10.65;;;;;;;22.11;66.74;100062.78;10213342;29;20083;-80
2023/06/29 16:58:30;;;;;;;18.80;11.35;;;;;;;22.31;66.60;100062.78;10202556;29;20047;-80
2023/06/29 17:03:33;;;;;;;15.38;10.77;;;;;;;22.40;66.41;100063.41;10214632;29;20048;-79
2023/06/29 17:08:39;;;;;;;14.60;10.10;;;;;;;22.50;65.94;100048.31;10208699;29;20039;-79
2023/06/29 17:13:42;;;;;;;16.25;11.30;;;;;;;22.70;64.88;100051.00;10210594;29;20100;-80
2023/06/29 17:18:45;;;;;;;17.15;10.82;;;;;;;22.72;63.54;100042.59;10204186;29;20044;-77
2023/06/29 17:23:52;;;;;;;15.98;10.38;;;;;;;22.51;64.08;100041.75;10208085;29;20047;-77
2023/06/29 17:28:56;;;;;;;13.90;8.98;;;;;;;22.35;63.96;100039.41;10199358;29;20036;-78
2023/06/29 17:33:59;;;;;;;14.15;10.05;;;;;;;21.97;64.24;100048.25;10207583;29;20040;-77
2023/06/29 17:39:04;;;;;;;12.38;8.95;;;;;;;21.90;65.70;100044.63;10201998;29;20071;-76
2023/06/29 17:44:07;;;;;;;11.63;8.85;;;;;;;21.82;66.25;100037.47;10205573;29;20512;-77
2023/06/29 17:49:10;;;;;;;13.98;9.77;;;;;;;21.74;66.12;100039.50;10205458;29;20124;-76
2023/06/29 17:54:14;;;;;;;10.40;7.93;;;;;;;21.70;66.14;100047.28;10210375;29;20051;-78
2023/06/29 17:59:17;;;;;;;13.05;7.60;;;;;;;21.68;63.41;100041.19;10205608;29;20122;-79
2023/06/29 18:04:20;;;;;;;13.32;7.63;;;;;;;21.81;62.19;100041.25;10195236;29;20091;-75
2023/06/29 18:09:24;;;;;;;10.70;6.90;;;;;;;21.98;60.97;100047.16;10197191;29;20040;-76
2023/06/29 18:14:27;;;;;;;9.98;7.15;;;;;;;22.13;61.04;100049.72;10211027;29;20567;-78
2023/06/29 18:19:30;;;;;;;9.35;6.93;;;;;;;22.26;60.69;100038.78;10202493;29;20044;-78
2023/06/29 18:24:35;;;;;;;12.30;7.38;;;;;;;22.20;60.80;100042.38;10213233;29;20484;-76
2023/06/29 18:29:38;;;;;;;10.23;6.40;;;;;;;22.01;61.22;100030.34;10201666;29;20048;-78
2023/06/29 18:34:42;;;;;;;11.18;6.50;;;;;;;21.91;61.66;100031.78;10207318;29;20496;-77
2023/06/29 18:39:46;;;;;;;15.05;7.53;;;;;;;21.82;61.88;100028.41;10205665;29;20048;-78
2023/06/29 18:44:51;;;;;;;12.32;8.52;;;;;;;21.66;62.12;100011.31;10209906;29;20567;-77
2023/06/29 18:49:54;;;;;;;10.23;7.53;;;;;;;21.71;62.48;100020.78;10207061;29;20043;-78
2023/06/29 18:55:02;;;;;;;13.20;7.47;;;;;;;21.63;62.88;100013.63;10210122;29;20119;-78
2023/06/29 19:00:06;;;;;;;10.98;8.48;;;;;;;21.53;63.19;100016.75;10198246;29;20373;-77
2023/06/29 19:05:11;;;;;;;11.32;7.40;;;;;;;21.44;63.68;100023.44;10204056;29;20064;-78
2023/06/29 19:10:15;;;;;;;12.73;7.63;;;;;;;21.35;64.14;100025.50;10190070;29;20052;-77
2023/06/29 19:15:19;;;;;;;10.02;7.85;;;;;;;21.27;64.20;100028.41;10182925;29;20075;-78
2023/06/29 19:20:22;;;;;;;12.13;7.80;;;;;;;21.20;64.60;100030.25;10204765;29;20095;-77
2023/06/29 19:25:26;;;;;;;16.73;7.90;;;;;;;21.15;64.68;100032.78;10183809;29;20047;-78
2023/06/29 19:30:29;;;;;;;12.35;8.18;;;;;;;21.08;65.24;100043.66;10205252;29;20047;-78
2023/06/29 19:35:32;;;;;;;16.38;9.32;;;;;;;20.83;66.63;100051.44;10206017;29;20519;-77
2023/06/29 19:40:36;;;;;;;12.18;8.93;;;;;;;20.60;67.93;100064.50;10203954;29;20071;-78
2023/06/29 19:45:39;;;;;;;17.17;11.57;;;;;;;20.28;69.00;100053.09;10199860;29;20069;-81
2023/06/29 19:50:42;;;;;;;15.10;12.05;;;;;;;20.26;69.91;100056.00;10232777;29;20056;-78
2023/06/29 19:55:46;;;;;;;14.40;10.85;;;;;;;20.05;70.46;100067.78;10245983;29;20055;-79
2023/06/29 20:00:50;;;;;;;17.02;11.63;;;;;;;19.92;71.75;100067.63;10221637;29;20043;-80
2023/06/29 20:05:54;;;;;;;17.33;12.05;;;;;;;19.36;75.88;100108.19;10237330;29;20119;-81
2023/06/29 20:10:59;;;;;;;37.20;17.55;;;;;;;17.78;99.35;100097.09;10227565;29;20055;-78
2023/06/29 20:16:17;;;;;;;34.72;22.00;;;;;;;-149.37;100.00;59372.97;10210439;29;20042;-78
2023/06/29 20:21:20;;;;;;;32.20;21.88;;;;;;;-149.37;100.00;59372.97;10224848;29;20479;-79
2023/06/29 20:27:25;;;;;;;33.20;21.27;;;;;;;-149.37;100.00;59372.97;10225432;29;20056;-81
2023/06/29 20:32:28;;;;;;;37.42;23.42;;;;;;;-149.37;100.00;59372.97;10220278;29;20043;-80
2023/06/29 20:37:31;;;;;;;43.28;25.98;;;;;;;-149.37;100.00;59372.97;10222800;29;20048;-82
2023/06/29 20:42:37;;;;;;;46.08;27.20;;;;;;;-149.37;100.00;59372.97;10233884;29;20079;-81
2023/06/29 20:47:40;;;;;;;42.63;27.77;;;;;;;-149.37;100.00;59372.97;10209027;29;20079;-83
2023/06/29 20:52:43;;;;;;;47.17;30.17;;;;;;;-149.37;100.00;59372.97;10209155;29;20058;-77
2023/06/29 20:58:41;;;;;;;52.40;31.02;;;;;;;-149.37;100.00;59372.97;10170177;29;20074;-78
2023/06/29 21:04:42;;;;;;;46.88;30.88;;;;;;;-149.37;100.00;59372.97;10171632;29;20040;-79
2023/06/29 21:10:44;;;;;;;45.00;29.27;;;;;;;-149.37;100.00;59372.97;10172213;29;20401;-78
2023/06/29 21:23:22;;;;;;;47.28;30.20;;;;;;;-149.37;100.00;59372.97;10171604;29;20393;-78
2023/06/29 21:29:27;;;;;;;49.33;29.88;;;;;;;-149.37;100.00;59372.97;10170700;29;20051;-77
2023/06/29 21:34:49;;;;;;;48.45;31.02;;;;;;;-149.37;100.00;59372.97;10170532;29;20044;-79
2023/06/29 21:40:51;;;;;;;52.95;30.63;;;;;;;-149.37;100.00;59372.97;10170109;29;20104;-77
2023/06/29 21:46:53;;;;;;;41.83;27.95;;;;;;;-149.37;100.00;59372.97;10183303;29;20043;-78
2023/06/29 21:52:42;;;;;;;46.65;29.55;;;;;;;-149.37;100.00;59372.97;10214968;29;20090;-77
2023/06/29 21:58:44;;;;;;;48.75;30.00;;;;;;;-149.37;100.00;59372.97;10215720;29;20058;-78
2023/06/29 22:04:46;;;;;;;42.83;27.85;;;;;;;-149.37;100.00;59372.97;10178428;29;20048;-80
2023/06/29 22:10:47;;;;;;;46.35;29.27;;;;;;;-149.37;100.00;59372.97;10194295;29;20059;-78
2023/06/29 22:15:53;;;;;;;43.05;28.70;;;;;;;-149.37;100.00;59372.97;10176631;29;20052;-80
2023/06/29 22:20:57;;;;;;;47.50;30.13;;;;;;;-149.37;100.00;59372.97;10176314;29;20044;-77
2023/06/29 22:26:01;;;;;;;51.78;30.02;;;;;;;-149.37;100.00;59372.97;10176740;29;20040;-78
2023/06/29 22:32:07;;;;;;;48.72;31.38;;;;;;;-149.37;100.00;59372.97;10175396;29;20530;-78
2023/06/29 22:38:09;;;;;;;48.10;28.90;;;;;;;-149.37;100.00;59372.97;10181935;29;20035;-80
2023/06/29 22:44:10;;;;;;;44.25;27.48;;;;;;;-149.37;100.00;59372.97;10182210;29;20913;-80
2023/06/29 22:50:13;;;;;;;50.08;29.08;;;;;;;-149.37;100.00;59372.97;10173911;29;20047;-78
2023/06/29 22:56:14;;;;;;;;;;;;;;;-149.37;100.00;59372.97;10213380;29;20412;-79
2023/06/29 23:02:16;;;;;;;49.22;28.83;;;;;;;-149.37;100.00;59372.97;10212362;29;19965;-79
2023/06/29 23:08:18;;;;;;;48.72;28.45;;;;;;;-149.37;100.00;59372.97;10206781;29;20051;-78
2023/06/29 23:14:20;;;;;;;50.38;30.85;;;;;;;-149.37;100.00;59372.97;10198914;29;20052;-76